Tramper — PHAA — position and weather

sailwx.info

Track history (hours):
 
Tides and Currents Weather Stations Pressure Air Temp Water Temp Dewpoint Dewpoint Depression Visibility Wind Speed Wind Dir Waves Ship Positions

Tramper

Last reported at 2017-Apr-30 18:44 UTC. Time now 2017-Apr-30 20:41 UTC.
Position S 04°47' E 011°51'.

Length 101 m; beam 20 m.

Type: Cargo ship. MMSI: 245867000.

Date/timePositionNaut miles runAvg speedWind from/ knotsBaromVisibWave heightAir tempDewpointWater temp
2017-Apr-30 18:44S 04°47' E 011°51'0 0.0
2017-Apr-30 18:29S 04°47' E 011°51'0 0.0
2017-Apr-30 15:14S 04°47' E 011°51'0 0.0
2017-Apr-30 14:53S 04°47' E 011°51'0 0.0
2017-Apr-30 14:14S 04°47' E 011°51'0 0.0
2017-Apr-30 13:29S 04°47' E 011°51'0 0.0
2017-Apr-30 12:59S 04°47' E 011°51'0 0.0
2017-Apr-30 12:26S 04°47' E 011°51'0 0.0
2017-Apr-30 11:59S 04°47' E 011°51'9 1.1
2017-Apr-30 04:18S 04°51' E 011°43'412.2
2017-Apr-30 03:59S 04°52' E 011°40'612.8
2017-Apr-30 03:30S 04°55' E 011°34'714.5
2017-Apr-30 03:00S 04°59' E 011°28'813.8
2017-Apr-30 02:25S 04°59' E 011°20'715.3
2017-Apr-30 01:58S 04°56' E 011°14'715.4
2017-Apr-30 01:31S 04°54' E 011°07'815.5
2017-Apr-30 01:00S 04°51' E 010°60'1315.5
2017-Apr-30 00:12S 04°46' E 010°48'415.6
2017-Apr-29 23:56S 04°44' E 010°44'915.7
2017-Apr-29 23:23S 04°41' E 010°36'615.6
2017-Apr-29 23:00S 04°39' E 010°31'8517.0
2017-Apr-29 18:00S 04°06' E 009°12'16613.9 130 / 101010.010.8 26.224.4
2017-Apr-29 06:00S 01°36' E 008°00'   140 / 61012.410.8 25.824.4
2017-Apr-21 18:00N 02°36' W 007°06'15613.0 130 / 101009.8 5.4 27.421.5
2017-Apr-21 06:00N 02°36' W 009°42'   210 / 61009.8 5.4 26.524.5
Track history (hours):
 
Tides and Currents Weather Stations Pressure Air Temp Water Temp Dewpoint Dewpoint Depression Visibility Wind Speed Wind Dir Waves Ship Positions

Tramper

Last reported at 2017-Apr-30 18:44 UTC. Time now 2017-Apr-30 20:41 UTC.
Position S 04°47' E 011°51'.

Length 101 m; beam 20 m.

Type: Cargo ship. MMSI: 245867000.

Date/timePositionNaut miles runAvg speedWind from/ knotsBaromVisibWave heightAir tempDewpointWater temp
2017-Apr-30 18:44S 04°47' E 011°51'0 0.0
2017-Apr-30 18:29S 04°47' E 011°51'0 0.0
2017-Apr-30 15:14S 04°47' E 011°51'0 0.0
2017-Apr-30 14:53S 04°47' E 011°51'0 0.0
2017-Apr-30 14:14S 04°47' E 011°51'0 0.0
2017-Apr-30 13:29S 04°47' E 011°51'0 0.0
2017-Apr-30 12:59S 04°47' E 011°51'0 0.0
2017-Apr-30 12:26S 04°47' E 011°51'0 0.0
2017-Apr-30 11:59S 04°47' E 011°51'9 1.1
2017-Apr-30 04:18S 04°51' E 011°43'412.2
2017-Apr-30 03:59S 04°52' E 011°40'612.8
2017-Apr-30 03:30S 04°55' E 011°34'714.5
2017-Apr-30 03:00S 04°59' E 011°28'813.8
2017-Apr-30 02:25S 04°59' E 011°20'715.3
2017-Apr-30 01:58S 04°56' E 011°14'715.4
2017-Apr-30 01:31S 04°54' E 011°07'815.5
2017-Apr-30 01:00S 04°51' E 010°60'1315.5
2017-Apr-30 00:12S 04°46' E 010°48'415.6
2017-Apr-29 23:56S 04°44' E 010°44'915.7
2017-Apr-29 23:23S 04°41' E 010°36'615.6
2017-Apr-29 23:00S 04°39' E 010°31'8517.0
2017-Apr-29 18:00S 04°06' E 009°12'16613.9 130 / 101010.010.8 26.224.4
2017-Apr-29 06:00S 01°36' E 008°00'   140 / 61012.410.8 25.824.4
2017-Apr-21 18:00N 02°36' W 007°06'15613.0 130 / 101009.8 5.4 27.421.5
2017-Apr-21 06:00N 02°36' W 009°42'   210 / 61009.8 5.4 26.524.5

Dump ship's entire track history